createdAt,value
2019-02-17T00:04:08.324Z,102551.91
2019-02-17T00:09:23.488Z,102549.88
2019-02-17T00:14:32.409Z,102538.59
2019-02-17T00:19:41.515Z,102539.19
2019-02-17T00:24:50.433Z,102537.22
2019-02-17T00:29:59.466Z,102541.87
2019-02-17T00:35:08.591Z,102527.48
2019-02-17T00:40:20.773Z,102528.66
2019-02-17T00:45:35.703Z,102532.49
2019-02-17T00:50:45.841Z,102524.23
2019-02-17T00:55:54.635Z,102522.38
2019-02-17T01:01:05.009Z,102515.13
2019-02-17T01:06:20.079Z,102506.22
2019-02-17T01:11:28.818Z,102512.49
2019-02-17T01:16:37.023Z,102503.27
2019-02-17T01:21:45.820Z,102502.16
2019-02-17T01:26:54.499Z,102498.57
2019-02-17T01:32:07.690Z,102497.17
2019-02-17T01:37:19.780Z,102497.16
2019-02-17T01:42:59.893Z,102501.08
2019-02-17T01:48:16.323Z,102489.66
2019-02-17T01:53:25.199Z,102482.92
2019-02-17T01:58:34.200Z,102486.12
2019-02-17T02:03:43.100Z,102486.38
2019-02-17T02:08:52.215Z,102483.30
2019-02-17T02:14:00.566Z,102475.19
2019-02-17T02:19:09.175Z,102465.75
2019-02-17T02:24:18.270Z,102462.17
2019-02-17T02:29:28.299Z,102455.80
2019-02-17T02:34:39.584Z,102452.12
2019-02-17T02:39:48.574Z,102441.03
2019-02-17T02:45:04.744Z,102435.41
2019-02-17T02:50:14.797Z,102432.85
2019-02-17T02:55:23.753Z,102429.48
2019-02-17T03:00:38.885Z,102426.00
2019-02-17T03:05:59.150Z,102421.91
2019-02-17T03:11:07.882Z,102419.22
2019-02-17T03:16:16.654Z,102405.19
2019-02-17T03:21:25.622Z,102396.80
2019-02-17T03:26:33.824Z,102394.70
2019-02-17T03:31:42.632Z,102395.89
2019-02-17T03:36:51.684Z,102383.42
2019-02-17T03:41:59.819Z,102388.69
2019-02-17T03:47:15.491Z,102380.40
2019-02-17T03:52:24.446Z,102378.14
2019-02-17T03:57:32.594Z,102381.59
2019-02-17T04:02:41.454Z,102377.10
2019-02-17T04:07:50.538Z,102376.45
2019-02-17T04:12:59.527Z,102375.37
2019-02-17T04:18:08.558Z,102368.62
2019-02-17T04:23:16.684Z,102367.89
2019-02-17T04:28:25.694Z,102365.80
2019-02-17T04:33:34.498Z,102370.12
2019-02-17T04:38:49.727Z,102372.63
2019-02-17T04:43:58.567Z,102370.41
2019-02-17T04:49:13.658Z,102361.30
2019-02-17T04:54:25.530Z,102356.76
2019-02-17T04:59:34.373Z,102354.31
2019-02-17T05:04:43.407Z,102347.74
2019-02-17T05:09:52.119Z,102346.34
2019-02-17T05:15:00.958Z,102341.81
2019-02-17T05:20:11.133Z,102344.44
2019-02-17T05:25:22.701Z,102337.83
2019-02-17T05:30:31.993Z,102330.59
2019-02-17T05:35:41.101Z,102329.14
2019-02-17T05:40:56.317Z,102331.80
2019-02-17T05:46:13.852Z,102323.22
2019-02-17T05:51:23.108Z,102315.39
2019-02-17T05:56:32.143Z,102308.34
2019-02-17T06:01:47.448Z,102302.94
2019-02-17T06:06:56.379Z,102299.98
2019-02-17T06:12:04.687Z,102290.05
2019-02-17T06:17:25.786Z,102303.69
2019-02-17T06:22:37.772Z,102291.55
2019-02-17T06:27:46.701Z,102289.33
2019-02-17T06:32:55.752Z,102295.91
2019-02-17T06:38:04.790Z,102297.94
2019-02-17T06:43:12.927Z,102285.73
2019-02-17T06:48:28.915Z,102282.13
2019-02-17T06:53:37.949Z,102285.43
2019-02-17T06:58:47.050Z,102293.98
2019-02-17T07:03:55.158Z,102291.55
2019-02-17T07:09:04.834Z,102295.50
2019-02-17T07:14:14.228Z,102295.78
2019-02-17T07:19:23.301Z,102294.59
2019-02-17T07:29:49.035Z,102296.72
2019-02-17T07:34:59.734Z,102291.26
2019-02-17T07:40:08.957Z,102285.81
2019-02-17T07:45:25.488Z,102284.55
2019-02-17T07:50:43.179Z,102282.80
2019-02-17T07:56:02.487Z,102275.00
2019-02-17T08:01:11.392Z,102284.55
2019-02-17T08:06:20.461Z,102274.84
2019-02-17T08:11:29.166Z,102271.23
2019-02-17T08:16:46.201Z,102265.00
2019-02-17T08:21:55.239Z,102266.12
2019-02-17T08:27:04.670Z,102262.62
2019-02-17T08:32:13.484Z,102257.18
2019-02-17T08:37:21.668Z,102260.98
2019-02-17T08:42:30.773Z,102262.47
2019-02-17T08:47:39.001Z,102254.47
2019-02-17T08:52:53.969Z,102247.58
2019-02-17T08:58:02.866Z,102240.33
2019-02-17T09:03:11.837Z,102246.58
2019-02-17T09:08:20.874Z,102242.33
2019-02-17T09:13:29.891Z,102242.91
2019-02-17T09:18:38.749Z,102238.95
2019-02-17T09:23:47.808Z,102229.56
2019-02-17T09:28:58.988Z,102231.23
2019-02-17T09:34:12.881Z,102230.17
2019-02-17T09:39:27.975Z,102209.30
2019-02-17T09:44:36.106Z,102212.27
2019-02-17T09:49:52.071Z,102208.77
2019-02-17T09:55:01.059Z,102204.05
2019-02-17T10:00:13.489Z,102205.08
2019-02-17T10:05:27.023Z,102208.48
2019-02-17T10:10:36.112Z,102207.49
2019-02-17T10:15:45.261Z,102205.80
2019-02-17T10:20:54.094Z,102199.20
2019-02-17T10:26:03.078Z,102201.55
2019-02-17T10:31:11.948Z,102210.73
2019-02-17T10:36:27.548Z,102200.28
2019-02-17T10:41:36.635Z,102196.27
2019-02-17T10:46:48.640Z,102189.20
2019-02-17T10:52:01.710Z,102181.43
2019-02-17T10:57:10.697Z,102167.93
2019-02-17T11:02:25.814Z,102159.30
2019-02-17T11:07:34.846Z,102153.09
2019-02-17T11:12:44.621Z,102150.36
2019-02-17T11:17:53.441Z,102142.41
2019-02-17T11:23:02.321Z,102139.30
2019-02-17T11:28:17.369Z,102130.84
2019-02-17T11:33:28.117Z,102122.02
2019-02-17T11:38:40.349Z,102118.91
2019-02-17T11:43:52.845Z,102109.33
2019-02-17T11:49:11.918Z,102116.61
2019-02-17T11:54:22.335Z,102109.95
2019-02-17T11:59:31.264Z,102096.23
2019-02-17T12:04:39.938Z,102090.18
2019-02-17T12:09:51.021Z,102081.16
2019-02-17T12:15:02.209Z,102071.66
2019-02-17T12:20:39.537Z,102074.08
2019-02-17T12:26:01.607Z,102066.02
2019-02-17T12:31:10.589Z,102062.63
2019-02-17T12:36:25.992Z,102052.20
2019-02-17T12:41:34.812Z,102043.77
2019-02-17T12:46:42.888Z,102037.05
2019-02-17T12:51:58.175Z,102031.52
2019-02-17T12:57:06.903Z,102022.90
2019-02-17T13:02:15.092Z,102029.10
2019-02-17T13:07:25.100Z,102023.85
2019-02-17T13:12:34.256Z,102014.83
2019-02-17T13:17:44.237Z,102017.70
2019-02-17T13:22:53.081Z,102002.87
2019-02-17T13:28:10.996Z,102001.50
2019-02-17T13:33:20.028Z,102004.02
2019-02-17T13:38:35.288Z,101986.23
2019-02-17T13:43:44.338Z,101986.72
2019-02-17T13:48:59.351Z,101978.84
2019-02-17T13:54:08.228Z,101968.41
2019-02-17T13:59:17.052Z,101961.60
2019-02-17T14:04:26.036Z,101962.59
2019-02-17T14:09:36.105Z,101955.53
2019-02-17T14:14:47.011Z,101939.95
2019-02-17T14:19:59.032Z,101932.74
2019-02-17T14:25:38.982Z,101933.84
2019-02-17T14:30:55.045Z,101929.19
2019-02-17T14:36:05.973Z,101922.22
2019-02-17T14:41:14.951Z,101923.32
2019-02-17T14:46:24.132Z,101914.42
2019-02-17T14:51:33.306Z,101916.25
2019-02-17T14:56:47.498Z,101926.64
2019-02-17T15:02:00.571Z,101922.94
2019-02-17T15:07:15.791Z,101921.70
2019-02-17T15:12:27.737Z,101923.36
2019-02-17T15:17:39.823Z,101908.42
2019-02-17T15:22:48.126Z,101908.42
2019-02-17T15:28:04.367Z,101903.94
2019-02-17T15:33:14.955Z,101894.09
2019-02-17T15:38:23.753Z,101898.27
2019-02-17T15:43:32.120Z,101901.14
2019-02-17T15:48:43.482Z,101901.14
2019-02-17T15:53:51.760Z,101892.39
2019-02-17T15:59:00.915Z,101896.08
2019-02-17T16:04:10.112Z,101895.38
2019-02-17T16:09:18.329Z,101896.91
2019-02-17T16:14:29.074Z,101896.91
2019-02-17T16:19:38.127Z,101895.02
2019-02-17T16:24:47.144Z,101899.00
2019-02-17T16:30:02.074Z,101898.91
2019-02-17T16:35:11.236Z,101895.19
2019-02-17T16:40:20.125Z,101899.59
2019-02-17T16:45:29.127Z,101907.41
2019-02-17T16:50:39.464Z,101894.30
2019-02-17T16:55:51.456Z,101889.67
2019-02-17T17:01:01.025Z,101892.94
2019-02-17T17:06:11.204Z,101898.98
2019-02-17T17:11:20.383Z,101901.66
2019-02-17T17:16:29.500Z,101906.33
2019-02-17T17:21:38.591Z,101913.45
2019-02-17T17:26:54.110Z,101913.47
2019-02-17T17:32:11.183Z,101926.09
2019-02-17T17:37:19.393Z,101931.67
2019-02-17T17:42:29.020Z,101937.73
2019-02-17T17:47:37.986Z,101939.78
2019-02-17T17:52:56.195Z,101945.25
2019-02-17T17:58:08.258Z,101948.63
2019-02-17T18:03:16.885Z,101949.18
2019-02-17T18:08:25.109Z,101954.51
2019-02-17T18:13:41.300Z,101952.49
2019-02-17T18:18:49.720Z,101961.58
2019-02-17T18:23:58.916Z,101963.89
2019-02-17T18:29:17.353Z,101963.77
2019-02-17T18:34:25.449Z,101975.76
2019-02-17T18:39:34.334Z,101963.42
2019-02-17T18:44:43.207Z,101974.91
2019-02-17T18:49:54.679Z,101975.89
2019-02-17T18:55:03.677Z,101972.28
2019-02-17T19:00:13.689Z,101995.14
2019-02-17T19:05:31.522Z,101989.95
2019-02-17T19:10:39.867Z,101982.44
2019-02-17T19:15:48.684Z,101984.88
2019-02-17T19:20:57.745Z,101990.20
2019-02-17T19:26:24.171Z,101991.59
2019-02-17T19:31:39.304Z,101998.25
2019-02-17T19:36:48.506Z,101999.02
2019-02-17T19:41:59.463Z,101997.85
2019-02-17T19:47:08.542Z,102000.30
2019-02-17T19:52:19.450Z,101998.14
2019-02-17T19:57:27.900Z,101999.93
2019-02-17T20:02:52.036Z,101996.34
2019-02-17T20:08:02.047Z,102000.22
2019-02-17T20:13:20.036Z,101994.67
2019-02-17T20:18:22.184Z,101990.31
2019-02-17T20:23:31.515Z,101996.31
2019-02-17T20:28:46.725Z,101997.58
2019-02-17T20:33:55.794Z,101995.55
2019-02-17T20:39:05.916Z,101999.66
2019-02-17T20:44:17.024Z,101995.89
2019-02-17T20:49:28.216Z,101999.87
2019-02-17T20:54:41.717Z,101996.02
2019-02-17T20:59:50.815Z,102001.20
2019-02-17T21:04:59.234Z,101998.20
2019-02-17T21:10:14.246Z,102008.98
2019-02-17T21:15:30.087Z,102004.97
2019-02-17T21:20:39.980Z,102008.88
2019-02-17T21:25:49.023Z,102010.23
2019-02-17T21:30:58.142Z,102005.36
2019-02-17T21:36:09.027Z,102015.36
2019-02-17T21:41:19.023Z,102014.28
2019-02-17T21:46:28.194Z,102016.11
2019-02-17T21:51:36.619Z,102014.36
2019-02-17T21:56:45.655Z,102024.69
2019-02-17T22:02:00.434Z,102030.58
2019-02-17T22:07:09.261Z,102031.18
2019-02-17T22:12:20.205Z,102038.23
2019-02-17T22:17:28.916Z,102037.23
2019-02-17T22:22:37.985Z,102035.27
2019-02-17T22:27:46.201Z,102042.64
2019-02-17T22:33:01.532Z,102037.69
2019-02-17T22:38:11.616Z,102025.62
2019-02-17T22:43:21.629Z,102027.53
2019-02-17T22:48:36.669Z,102028.84
2019-02-17T22:53:50.822Z,102023.64
2019-02-17T22:58:59.868Z,102017.63
2019-02-17T23:04:09.994Z,102023.05
2019-02-17T23:09:23.202Z,102024.66
2019-02-17T23:14:39.343Z,102033.20
2019-02-17T23:19:48.404Z,102030.02
2019-02-17T23:25:01.355Z,102025.75
2019-02-17T23:30:22.388Z,102030.53
2019-02-17T23:35:39.448Z,102033.70
2019-02-17T23:40:54.657Z,102036.19
2019-02-17T23:45:56.653Z,102042.09
2019-02-17T23:51:07.059Z,102041.69
2019-02-17T23:56:18.968Z,102040.95
